sensor_id;sensor_type;location;lat;lon;timestamp;temperature;humidity
29363;DHT22;16349;53.672;10.014;2023-06-22T00:00:49;18.50;99.90
29363;DHT22;16349;53.672;10.014;2023-06-22T00:03:17;18.40;99.90
29363;DHT22;16349;53.672;10.014;2023-06-22T00:05:45;18.40;99.90
29363;DHT22;16349;53.672;10.014;2023-06-22T00:08:12;18.20;99.90
29363;DHT22;16349;53.672;10.014;2023-06-22T00:10:38;18.10;99.90
29363;DHT22;16349;53.672;10.014;2023-06-22T00:13:07;18.10;99.90
29363;DHT22;16349;53.672;10.014;2023-06-22T00:15:35;18.00;99.90
29363;DHT22;16349;53.672;10.014;2023-06-22T00:18:02;17.90;99.90
29363;DHT22;16349;53.672;10.014;2023-06-22T00:20:29;17.90;99.90
29363;DHT22;16349;53.672;10.014;2023-06-22T00:22:56;18.00;99.90
29363;DHT22;16349;53.672;10.014;2023-06-22T00:25:24;18.00;99.90
29363;DHT22;16349;53.672;10.014;2023-06-22T00:27:50;18.00;99.90
29363;DHT22;16349;53.672;10.014;2023-06-22T00:30:19;18.10;99.90
29363;DHT22;16349;53.672;10.014;2023-06-22T00:32:46;18.10;99.90
29363;DHT22;16349;53.672;10.014;2023-06-22T00:35:13;18.00;99.90
29363;DHT22;16349;53.672;10.014;2023-06-22T00:37:40;18.00;99.90
29363;DHT22;16349;53.672;10.014;2023-06-22T00:40:08;17.90;99.90
29363;DHT22;16349;53.672;10.014;2023-06-22T00:42:36;17.80;99.90
29363;DHT22;16349;53.672;10.014;2023-06-22T00:45:04;17.80;99.90
29363;DHT22;16349;53.672;10.014;2023-06-22T00:47:33;17.80;99.90
29363;DHT22;16349;53.672;10.014;2023-06-22T00:50:00;17.70;99.90
29363;DHT22;16349;53.672;10.014;2023-06-22T00:52:28;17.70;99.90
29363;DHT22;16349;53.672;10.014;2023-06-22T00:54:57;17.70;99.90
29363;DHT22;16349;53.672;10.014;2023-06-22T00:57:27;17.80;99.90
29363;DHT22;16349;53.672;10.014;2023-06-22T00:59:55;17.80;99.90
29363;DHT22;16349;53.672;10.014;2023-06-22T01:02:22;17.70;99.90
29363;DHT22;16349;53.672;10.014;2023-06-22T01:04:50;17.70;99.90
29363;DHT22;16349;53.672;10.014;2023-06-22T01:07:23;17.60;99.90
29363;DHT22;16349;53.672;10.014;2023-06-22T01:09:59;17.60;99.90
29363;DHT22;16349;53.672;10.014;2023-06-22T01:12:27;17.60;99.90
29363;DHT22;16349;53.672;10.014;2023-06-22T01:15:02;17.60;99.90
29363;DHT22;16349;53.672;10.014;2023-06-22T01:17:32;17.60;99.90
29363;DHT22;16349;53.672;10.014;2023-06-22T01:20:02;17.60;99.90
29363;DHT22;16349;53.672;10.014;2023-06-22T01:22:33;17.50;99.90
29363;DHT22;16349;53.672;10.014;2023-06-22T01:25:13;17.50;99.90
29363;DHT22;16349;53.672;10.014;2023-06-22T01:27:49;17.50;99.90
29363;DHT22;16349;53.672;10.014;2023-06-22T01:30:20;17.60;99.90
29363;DHT22;16349;53.672;10.014;2023-06-22T01:32:47;17.50;99.90
29363;DHT22;16349;53.672;10.014;2023-06-22T01:35:15;17.50;99.90
29363;DHT22;16349;53.672;10.014;2023-06-22T01:37:42;17.40;99.90
29363;DHT22;16349;53.672;10.014;2023-06-22T01:40:11;17.40;99.90
29363;DHT22;16349;53.672;10.014;2023-06-22T01:42:38;17.40;99.90
29363;DHT22;16349;53.672;10.014;2023-06-22T01:45:07;17.40;99.90
29363;DHT22;16349;53.672;10.014;2023-06-22T01:47:39;17.40;99.90
29363;DHT22;16349;53.672;10.014;2023-06-22T01:50:06;17.50;99.90
29363;DHT22;16349;53.672;10.014;2023-06-22T01:52:33;17.50;99.90
29363;DHT22;16349;53.672;10.014;2023-06-22T01:55:00;17.50;99.90
29363;DHT22;16349;53.672;10.014;2023-06-22T01:57:27;17.50;99.90
29363;DHT22;16349;53.672;10.014;2023-06-22T02:00:00;17.40;99.90
29363;DHT22;16349;53.672;10.014;2023-06-22T02:02:30;17.40;99.90
29363;DHT22;16349;53.672;10.014;2023-06-22T02:05:03;17.30;99.90
29363;DHT22;16349;53.672;10.014;2023-06-22T02:07:35;17.20;99.90
29363;DHT22;16349;53.672;10.014;2023-06-22T02:10:04;17.30;99.90
29363;DHT22;16349;53.672;10.014;2023-06-22T02:12:34;17.30;99.90
29363;DHT22;16349;53.672;10.014;2023-06-22T02:15:02;17.30;99.90
29363;DHT22;16349;53.672;10.014;2023-06-22T02:17:29;17.30;99.90
29363;DHT22;16349;53.672;10.014;2023-06-22T02:20:01;17.40;99.90
29363;DHT22;16349;53.672;10.014;2023-06-22T02:22:30;17.40;99.90
29363;DHT22;16349;53.672;10.014;2023-06-22T02:24:57;17.30;99.90
29363;DHT22;16349;53.672;10.014;2023-06-22T02:27:24;17.30;99.90
29363;DHT22;16349;53.672;10.014;2023-06-22T02:29:51;17.20;99.90
29363;DHT22;16349;53.672;10.014;2023-06-22T02:32:18;17.30;99.90
29363;DHT22;16349;53.672;10.014;2023-06-22T02:34:46;17.30;99.90
29363;DHT22;16349;53.672;10.014;2023-06-22T02:37:17;17.20;99.90
29363;DHT22;16349;53.672;10.014;2023-06-22T02:39:44;17.20;99.90
29363;DHT22;16349;53.672;10.014;2023-06-22T02:42:10;17.20;99.90
29363;DHT22;16349;53.672;10.014;2023-06-22T02:44:37;17.20;99.90
29363;DHT22;16349;53.672;10.014;2023-06-22T02:47:05;17.20;99.90
29363;DHT22;16349;53.672;10.014;2023-06-22T02:49:32;17.20;99.90
29363;DHT22;16349;53.672;10.014;2023-06-22T02:51:59;17.20;99.90
29363;DHT22;16349;53.672;10.014;2023-06-22T02:54:27;17.20;99.90
29363;DHT22;16349;53.672;10.014;2023-06-22T02:56:54;17.20;99.90
29363;DHT22;16349;53.672;10.014;2023-06-22T02:59:22;17.20;99.90
29363;DHT22;16349;53.672;10.014;2023-06-22T03:01:52;17.00;99.90
29363;DHT22;16349;53.672;10.014;2023-06-22T03:04:23;16.90;99.90
29363;DHT22;16349;53.672;10.014;2023-06-22T03:06:50;16.90;99.90
29363;DHT22;16349;53.672;10.014;2023-06-22T03:09:17;16.90;99.90
29363;DHT22;16349;53.672;10.014;2023-06-22T03:11:45;16.90;99.90
29363;DHT22;16349;53.672;10.014;2023-06-22T03:14:12;16.90;99.90
29363;DHT22;16349;53.672;10.014;2023-06-22T03:16:39;16.90;99.90
29363;DHT22;16349;53.672;10.014;2023-06-22T03:19:07;16.80;99.90
29363;DHT22;16349;53.672;10.014;2023-06-22T03:21:33;16.80;99.90
29363;DHT22;16349;53.672;10.014;2023-06-22T03:24:00;16.80;99.90
29363;DHT22;16349;53.672;10.014;2023-06-22T03:26:27;16.70;99.90
29363;DHT22;16349;53.672;10.014;2023-06-22T03:28:58;16.70;99.90
29363;DHT22;16349;53.672;10.014;2023-06-22T03:31:28;16.80;99.90
29363;DHT22;16349;53.672;10.014;2023-06-22T03:33:55;16.80;99.90
29363;DHT22;16349;53.672;10.014;2023-06-22T03:36:23;16.80;99.90
29363;DHT22;16349;53.672;10.014;2023-06-22T03:38:51;16.90;99.90
29363;DHT22;16349;53.672;10.014;2023-06-22T03:41:18;16.90;99.90
29363;DHT22;16349;53.672;10.014;2023-06-22T03:43:46;16.90;99.90
29363;DHT22;16349;53.672;10.014;2023-06-22T03:46:16;16.90;99.90
29363;DHT22;16349;53.672;10.014;2023-06-22T03:48:43;16.90;99.90
29363;DHT22;16349;53.672;10.014;2023-06-22T03:51:10;16.90;99.90
29363;DHT22;16349;53.672;10.014;2023-06-22T03:53:36;17.00;99.90
29363;DHT22;16349;53.672;10.014;2023-06-22T03:56:03;17.00;99.90
29363;DHT22;16349;53.672;10.014;2023-06-22T03:58:30;17.00;99.90
29363;DHT22;16349;53.672;10.014;2023-06-22T04:00:58;17.40;99.90
29363;DHT22;16349;53.672;10.014;2023-06-22T04:03:26;17.20;99.90
29363;DHT22;16349;53.672;10.014;2023-06-22T04:05:53;17.10;99.90
29363;DHT22;16349;53.672;10.014;2023-06-22T04:08:20;17.10;99.90
29363;DHT22;16349;53.672;10.014;2023-06-22T04:10:47;17.10;99.90
29363;DHT22;16349;53.672;10.014;2023-06-22T04:13:14;17.20;99.90
29363;DHT22;16349;53.672;10.014;2023-06-22T04:15:40;17.30;99.90
29363;DHT22;16349;53.672;10.014;2023-06-22T04:18:07;17.30;99.90
29363;DHT22;16349;53.672;10.014;2023-06-22T04:20:35;17.30;99.90
29363;DHT22;16349;53.672;10.014;2023-06-22T04:23:02;17.30;99.90
29363;DHT22;16349;53.672;10.014;2023-06-22T04:25:29;17.30;99.90
29363;DHT22;16349;53.672;10.014;2023-06-22T04:27:56;17.30;99.90
29363;DHT22;16349;53.672;10.014;2023-06-22T04:30:23;17.30;99.90
29363;DHT22;16349;53.672;10.014;2023-06-22T04:32:50;17.40;99.90
29363;DHT22;16349;53.672;10.014;2023-06-22T04:35:21;17.40;99.90
29363;DHT22;16349;53.672;10.014;2023-06-22T04:37:50;17.40;99.90
29363;DHT22;16349;53.672;10.014;2023-06-22T04:40:20;17.50;99.90
29363;DHT22;16349;53.672;10.014;2023-06-22T04:42:47;17.50;99.90
29363;DHT22;16349;53.672;10.014;2023-06-22T04:45:19;17.60;99.90
29363;DHT22;16349;53.672;10.014;2023-06-22T04:47:46;17.60;99.90
29363;DHT22;16349;53.672;10.014;2023-06-22T04:50:13;17.60;99.90
29363;DHT22;16349;53.672;10.014;2023-06-22T04:52:39;17.70;99.90
29363;DHT22;16349;53.672;10.014;2023-06-22T04:55:08;17.70;99.90
29363;DHT22;16349;53.672;10.014;2023-06-22T04:57:35;17.80;99.90
29363;DHT22;16349;53.672;10.014;2023-06-22T05:00:05;17.80;99.90
29363;DHT22;16349;53.672;10.014;2023-06-22T05:02:38;17.90;99.90
29363;DHT22;16349;53.672;10.014;2023-06-22T05:05:05;17.90;99.90
29363;DHT22;16349;53.672;10.014;2023-06-22T05:07:33;18.00;99.90
29363;DHT22;16349;53.672;10.014;2023-06-22T05:09:59;18.00;99.90
29363;DHT22;16349;53.672;10.014;2023-06-22T05:12:29;18.00;99.90
29363;DHT22;16349;53.672;10.014;2023-06-22T05:14:56;18.10;99.90
29363;DHT22;16349;53.672;10.014;2023-06-22T05:17:23;18.20;99.90
29363;DHT22;16349;53.672;10.014;2023-06-22T05:19:50;18.20;99.90
29363;DHT22;16349;53.672;10.014;2023-06-22T05:22:18;18.30;99.90
29363;DHT22;16349;53.672;10.014;2023-06-22T05:24:45;18.30;99.90
29363;DHT22;16349;53.672;10.014;2023-06-22T05:27:13;18.40;99.90
29363;DHT22;16349;53.672;10.014;2023-06-22T05:29:41;18.50;99.90
29363;DHT22;16349;53.672;10.014;2023-06-22T05:32:09;18.50;99.90
29363;DHT22;16349;53.672;10.014;2023-06-22T05:34:37;18.50;99.90
29363;DHT22;16349;53.672;10.014;2023-06-22T05:37:05;18.50;99.90
29363;DHT22;16349;53.672;10.014;2023-06-22T05:39:32;18.60;99.90
29363;DHT22;16349;53.672;10.014;2023-06-22T05:41:58;18.60;99.90
29363;DHT22;16349;53.672;10.014;2023-06-22T05:44:25;18.70;99.90
29363;DHT22;16349;53.672;10.014;2023-06-22T05:46:53;18.80;99.90
29363;DHT22;16349;53.672;10.014;2023-06-22T05:49:20;18.80;99.90
29363;DHT22;16349;53.672;10.014;2023-06-22T05:51:48;18.90;99.90
29363;DHT22;16349;53.672;10.014;2023-06-22T05:54:15;19.00;99.90
29363;DHT22;16349;53.672;10.014;2023-06-22T05:56:43;19.10;99.90
29363;DHT22;16349;53.672;10.014;2023-06-22T05:59:10;19.10;99.90
29363;DHT22;16349;53.672;10.014;2023-06-22T06:01:37;19.20;99.90
29363;DHT22;16349;53.672;10.014;2023-06-22T06:04:07;19.30;99.90
29363;DHT22;16349;53.672;10.014;2023-06-22T06:06:34;19.30;99.90
29363;DHT22;16349;53.672;10.014;2023-06-22T06:09:03;19.40;99.90
29363;DHT22;16349;53.672;10.014;2023-06-22T06:11:29;19.40;99.90
29363;DHT22;16349;53.672;10.014;2023-06-22T06:13:56;19.50;99.90
29363;DHT22;16349;53.672;10.014;2023-06-22T06:16:23;19.50;99.90
29363;DHT22;16349;53.672;10.014;2023-06-22T06:18:50;19.60;99.90
29363;DHT22;16349;53.672;10.014;2023-06-22T06:21:20;19.60;99.90
29363;DHT22;16349;53.672;10.014;2023-06-22T06:23:47;19.70;99.90
29363;DHT22;16349;53.672;10.014;2023-06-22T06:26:14;19.80;99.90
29363;DHT22;16349;53.672;10.014;2023-06-22T06:28:42;19.80;99.90
29363;DHT22;16349;53.672;10.014;2023-06-22T06:31:09;19.80;99.90
29363;DHT22;16349;53.672;10.014;2023-06-22T06:33:37;19.80;99.90
29363;DHT22;16349;53.672;10.014;2023-06-22T06:36:05;19.90;99.90
29363;DHT22;16349;53.672;10.014;2023-06-22T06:38:35;19.90;99.90
29363;DHT22;16349;53.672;10.014;2023-06-22T06:41:02;19.90;99.90
29363;DHT22;16349;53.672;10.014;2023-06-22T06:43:29;19.80;99.90
29363;DHT22;16349;53.672;10.014;2023-06-22T06:45:55;19.80;99.90
29363;DHT22;16349;53.672;10.014;2023-06-22T06:48:22;19.80;99.90
29363;DHT22;16349;53.672;10.014;2023-06-22T06:50:49;19.80;99.90
29363;DHT22;16349;53.672;10.014;2023-06-22T06:53:16;19.90;99.90
29363;DHT22;16349;53.672;10.014;2023-06-22T06:55:44;19.90;99.90
29363;DHT22;16349;53.672;10.014;2023-06-22T06:58:11;20.00;99.90
29363;DHT22;16349;53.672;10.014;2023-06-22T07:00:39;20.00;99.90
29363;DHT22;16349;53.672;10.014;2023-06-22T07:03:06;20.10;99.90
29363;DHT22;16349;53.672;10.014;2023-06-22T07:05:33;20.20;99.90
29363;DHT22;16349;53.672;10.014;2023-06-22T07:08:00;20.30;99.90
29363;DHT22;16349;53.672;10.014;2023-06-22T07:10:27;20.40;99.90
29363;DHT22;16349;53.672;10.014;2023-06-22T07:12:56;20.50;99.90
29363;DHT22;16349;53.672;10.014;2023-06-22T07:15:23;20.50;99.90
29363;DHT22;16349;53.672;10.014;2023-06-22T07:17:50;20.60;99.90
29363;DHT22;16349;53.672;10.014;2023-06-22T07:20:17;20.70;99.90
29363;DHT22;16349;53.672;10.014;2023-06-22T07:22:45;20.80;99.90
29363;DHT22;16349;53.672;10.014;2023-06-22T07:25:12;20.80;99.90
29363;DHT22;16349;53.672;10.014;2023-06-22T07:27:44;20.90;99.90
29363;DHT22;16349;53.672;10.014;2023-06-22T07:30:13;21.00;99.90
29363;DHT22;16349;53.672;10.014;2023-06-22T07:32:40;21.10;99.90
29363;DHT22;16349;53.672;10.014;2023-06-22T07:35:08;21.10;99.90
29363;DHT22;16349;53.672;10.014;2023-06-22T07:37:35;21.20;99.90
29363;DHT22;16349;53.672;10.014;2023-06-22T07:40:02;21.20;99.90
29363;DHT22;16349;53.672;10.014;2023-06-22T07:42:32;21.30;99.90
29363;DHT22;16349;53.672;10.014;2023-06-22T07:44:59;21.30;99.90
29363;DHT22;16349;53.672;10.014;2023-06-22T07:47:28;21.30;99.90
29363;DHT22;16349;53.672;10.014;2023-06-22T07:49:55;21.40;99.90
29363;DHT22;16349;53.672;10.014;2023-06-22T07:52:24;21.50;99.90
29363;DHT22;16349;53.672;10.014;2023-06-22T07:55:00;21.50;99.90
29363;DHT22;16349;53.672;10.014;2023-06-22T07:57:27;21.50;99.90
29363;DHT22;16349;53.672;10.014;2023-06-22T07:59:59;21.60;99.90
29363;DHT22;16349;53.672;10.014;2023-06-22T08:02:27;21.80;99.90
29363;DHT22;16349;53.672;10.014;2023-06-22T08:04:54;21.90;99.90
29363;DHT22;16349;53.672;10.014;2023-06-22T08:07:21;21.90;99.90
29363;DHT22;16349;53.672;10.014;2023-06-22T08:09:48;22.00;99.90
29363;DHT22;16349;53.672;10.014;2023-06-22T08:12:15;22.10;99.90
29363;DHT22;16349;53.672;10.014;2023-06-22T08:14:43;22.20;99.90
29363;DHT22;16349;53.672;10.014;2023-06-22T08:17:11;22.30;99.90
29363;DHT22;16349;53.672;10.014;2023-06-22T08:19:40;22.40;99.90
29363;DHT22;16349;53.672;10.014;2023-06-22T08:22:07;22.50;99.90
29363;DHT22;16349;53.672;10.014;2023-06-22T08:24:34;22.60;99.90
29363;DHT22;16349;53.672;10.014;2023-06-22T08:27:01;22.60;99.90
29363;DHT22;16349;53.672;10.014;2023-06-22T08:29:27;22.50;99.90
29363;DHT22;16349;53.672;10.014;2023-06-22T08:31:54;22.50;99.90
29363;DHT22;16349;53.672;10.014;2023-06-22T08:34:21;22.50;99.90
29363;DHT22;16349;53.672;10.014;2023-06-22T08:36:54;22.60;99.90
29363;DHT22;16349;53.672;10.014;2023-06-22T08:39:21;22.50;99.90
29363;DHT22;16349;53.672;10.014;2023-06-22T08:41:48;22.60;99.90
29363;DHT22;16349;53.672;10.014;2023-06-22T08:44:18;22.70;99.90
29363;DHT22;16349;53.672;10.014;2023-06-22T08:46:45;22.80;99.90
29363;DHT22;16349;53.672;10.014;2023-06-22T08:49:12;23.00;99.90
29363;DHT22;16349;53.672;10.014;2023-06-22T08:51:39;23.10;99.90
29363;DHT22;16349;53.672;10.014;2023-06-22T08:54:07;23.10;99.90
29363;DHT22;16349;53.672;10.014;2023-06-22T08:56:34;23.20;99.90
29363;DHT22;16349;53.672;10.014;2023-06-22T08:59:01;23.30;99.90
29363;DHT22;16349;53.672;10.014;2023-06-22T09:01:28;23.30;99.90
29363;DHT22;16349;53.672;10.014;2023-06-22T09:03:55;23.50;99.90
29363;DHT22;16349;53.672;10.014;2023-06-22T09:06:23;23.50;99.90
29363;DHT22;16349;53.672;10.014;2023-06-22T09:08:50;23.50;99.90
29363;DHT22;16349;53.672;10.014;2023-06-22T09:11:18;23.50;99.90
29363;DHT22;16349;53.672;10.014;2023-06-22T09:13:45;23.50;99.90
29363;DHT22;16349;53.672;10.014;2023-06-22T09:16:13;23.70;99.90
29363;DHT22;16349;53.672;10.014;2023-06-22T09:18:40;23.80;99.90
29363;DHT22;16349;53.672;10.014;2023-06-22T09:21:07;23.80;99.90
29363;DHT22;16349;53.672;10.014;2023-06-22T09:23:34;23.80;99.90
29363;DHT22;16349;53.672;10.014;2023-06-22T09:26:01;23.90;99.90
29363;DHT22;16349;53.672;10.014;2023-06-22T09:28:31;24.10;99.90
29363;DHT22;16349;53.672;10.014;2023-06-22T09:30:59;24.20;99.90
29363;DHT22;16349;53.672;10.014;2023-06-22T09:33:26;24.20;99.90
29363;DHT22;16349;53.672;10.014;2023-06-22T09:35:53;24.30;99.90
29363;DHT22;16349;53.672;10.014;2023-06-22T09:38:20;24.40;99.90
29363;DHT22;16349;53.672;10.014;2023-06-22T09:40:46;24.40;99.40
29363;DHT22;16349;53.672;10.014;2023-06-22T09:43:13;24.40;98.90
29363;DHT22;16349;53.672;10.014;2023-06-22T09:45:41;24.40;99.00
29363;DHT22;16349;53.672;10.014;2023-06-22T09:48:09;24.50;98.90
29363;DHT22;16349;53.672;10.014;2023-06-22T09:50:36;24.60;99.10
29363;DHT22;16349;53.672;10.014;2023-06-22T09:53:03;24.80;98.70
29363;DHT22;16349;53.672;10.014;2023-06-22T09:55:29;24.60;98.40
29363;DHT22;16349;53.672;10.014;2023-06-22T09:57:56;24.60;98.90
29363;DHT22;16349;53.672;10.014;2023-06-22T10:00:23;24.70;98.40
29363;DHT22;16349;53.672;10.014;2023-06-22T10:02:53;24.70;98.20
29363;DHT22;16349;53.672;10.014;2023-06-22T10:05:21;24.70;98.20
29363;DHT22;16349;53.672;10.014;2023-06-22T10:07:48;24.90;98.30
29363;DHT22;16349;53.672;10.014;2023-06-22T10:10:15;25.20;98.10
29363;DHT22;16349;53.672;10.014;2023-06-22T10:12:44;25.10;97.20
29363;DHT22;16349;53.672;10.014;2023-06-22T10:15:11;25.30;96.90
29363;DHT22;16349;53.672;10.014;2023-06-22T10:17:38;25.30;97.00
29363;DHT22;16349;53.672;10.014;2023-06-22T10:20:08;25.40;97.70
29363;DHT22;16349;53.672;10.014;2023-06-22T10:22:38;25.50;97.20
29363;DHT22;16349;53.672;10.014;2023-06-22T10:25:06;25.70;97.10
29363;DHT22;16349;53.672;10.014;2023-06-22T10:27:33;25.70;96.30
29363;DHT22;16349;53.672;10.014;2023-06-22T10:30:01;25.70;96.40
29363;DHT22;16349;53.672;10.014;2023-06-22T10:32:28;25.80;95.90
29363;DHT22;16349;53.672;10.014;2023-06-22T10:34:54;26.00;96.00
29363;DHT22;16349;53.672;10.014;2023-06-22T10:37:23;26.00;95.70
29363;DHT22;16349;53.672;10.014;2023-06-22T10:39:50;26.10;95.80
29363;DHT22;16349;53.672;10.014;2023-06-22T10:42:17;26.00;95.90
29363;DHT22;16349;53.672;10.014;2023-06-22T10:44:44;26.20;96.00
29363;DHT22;16349;53.672;10.014;2023-06-22T10:47:11;26.20;95.40
29363;DHT22;16349;53.672;10.014;2023-06-22T10:49:38;26.20;95.30
29363;DHT22;16349;53.672;10.014;2023-06-22T10:52:05;26.20;94.90
29363;DHT22;16349;53.672;10.014;2023-06-22T10:54:34;26.30;94.80
29363;DHT22;16349;53.672;10.014;2023-06-22T10:57:02;26.30;94.30
29363;DHT22;16349;53.672;10.014;2023-06-22T10:59:29;26.20;94.70
29363;DHT22;16349;53.672;10.014;2023-06-22T11:01:56;26.20;94.80
29363;DHT22;16349;53.672;10.014;2023-06-22T11:04:23;26.30;95.00
29363;DHT22;16349;53.672;10.014;2023-06-22T11:06:51;26.50;95.00
29363;DHT22;16349;53.672;10.014;2023-06-22T11:09:17;26.70;94.90
29363;DHT22;16349;53.672;10.014;2023-06-22T11:11:49;26.80;94.20
29363;DHT22;16349;53.672;10.014;2023-06-22T11:14:16;26.80;94.20
29363;DHT22;16349;53.672;10.014;2023-06-22T11:16:43;26.80;93.50
29363;DHT22;16349;53.672;10.014;2023-06-22T11:19:10;26.60;93.40
29363;DHT22;16349;53.672;10.014;2023-06-22T11:21:37;26.60;94.50
29363;DHT22;16349;53.672;10.014;2023-06-22T11:24:04;26.80;94.20
29363;DHT22;16349;53.672;10.014;2023-06-22T11:26:31;27.00;93.90
29363;DHT22;16349;53.672;10.014;2023-06-22T11:28:59;27.10;93.50
29363;DHT22;16349;53.672;10.014;2023-06-22T11:31:30;27.10;92.90
29363;DHT22;16349;53.672;10.014;2023-06-22T11:33:57;27.10;92.70
29363;DHT22;16349;53.672;10.014;2023-06-22T11:36:25;26.90;92.10
29363;DHT22;16349;53.672;10.014;2023-06-22T11:38:52;26.70;92.40
29363;DHT22;16349;53.672;10.014;2023-06-22T11:41:19;26.70;92.50
29363;DHT22;16349;53.672;10.014;2023-06-22T11:43:46;26.90;93.00
29363;DHT22;16349;53.672;10.014;2023-06-22T11:46:14;27.10;92.30
29363;DHT22;16349;53.672;10.014;2023-06-22T11:48:41;27.20;91.90
29363;DHT22;16349;53.672;10.014;2023-06-22T11:51:08;27.20;92.20
29363;DHT22;16349;53.672;10.014;2023-06-22T11:53:35;27.20;92.00
29363;DHT22;16349;53.672;10.014;2023-06-22T11:56:02;27.30;92.40
29363;DHT22;16349;53.672;10.014;2023-06-22T11:58:29;27.40;92.60
29363;DHT22;16349;53.672;10.014;2023-06-22T12:00:56;27.50;92.40
29363;DHT22;16349;53.672;10.014;2023-06-22T12:03:24;27.70;91.50
29363;DHT22;16349;53.672;10.014;2023-06-22T12:05:51;27.80;91.00
29363;DHT22;16349;53.672;10.014;2023-06-22T12:08:18;27.80;90.80
29363;DHT22;16349;53.672;10.014;2023-06-22T12:10:45;27.80;90.90
29363;DHT22;16349;53.672;10.014;2023-06-22T12:13:12;27.90;91.60
29363;DHT22;16349;53.672;10.014;2023-06-22T12:15:39;27.90;91.40
29363;DHT22;16349;53.672;10.014;2023-06-22T12:18:06;27.90;91.30
29363;DHT22;16349;53.672;10.014;2023-06-22T12:20:35;27.80;91.40
29363;DHT22;16349;53.672;10.014;2023-06-22T12:23:02;27.90;91.30
29363;DHT22;16349;53.672;10.014;2023-06-22T12:25:29;27.90;90.90
29363;DHT22;16349;53.672;10.014;2023-06-22T12:27:56;27.90;90.70
29363;DHT22;16349;53.672;10.014;2023-06-22T12:30:23;27.90;90.30
29363;DHT22;16349;53.672;10.014;2023-06-22T12:32:50;28.00;90.30
29363;DHT22;16349;53.672;10.014;2023-06-22T12:35:17;28.00;90.30
29363;DHT22;16349;53.672;10.014;2023-06-22T12:37:45;27.90;90.40
29363;DHT22;16349;53.672;10.014;2023-06-22T12:40:12;27.80;91.00
29363;DHT22;16349;53.672;10.014;2023-06-22T12:42:40;27.90;91.10
29363;DHT22;16349;53.672;10.014;2023-06-22T12:45:09;28.00;90.90
29363;DHT22;16349;53.672;10.014;2023-06-22T12:47:36;28.20;91.40
29363;DHT22;16349;53.672;10.014;2023-06-22T12:50:03;28.50;95.70
29363;DHT22;16349;53.672;10.014;2023-06-22T12:52:31;28.50;89.30
29363;DHT22;16349;53.672;10.014;2023-06-22T12:54:59;28.50;89.50
29363;DHT22;16349;53.672;10.014;2023-06-22T12:57:26;28.50;89.10
29363;DHT22;16349;53.672;10.014;2023-06-22T12:59:53;28.60;90.70
29363;DHT22;16349;53.672;10.014;2023-06-22T13:02:20;29.00;88.70
29363;DHT22;16349;53.672;10.014;2023-06-22T13:04:47;29.30;87.80
29363;DHT22;16349;53.672;10.014;2023-06-22T13:07:14;29.40;87.90
29363;DHT22;16349;53.672;10.014;2023-06-22T13:09:41;29.70;85.60
29363;DHT22;16349;53.672;10.014;2023-06-22T13:12:09;29.90;84.80
29363;DHT22;16349;53.672;10.014;2023-06-22T13:14:36;30.00;82.80
29363;DHT22;16349;53.672;10.014;2023-06-22T13:17:03;29.60;83.80
29363;DHT22;16349;53.672;10.014;2023-06-22T13:19:30;29.30;84.50
29363;DHT22;16349;53.672;10.014;2023-06-22T13:21:58;29.10;85.20
29363;DHT22;16349;53.672;10.014;2023-06-22T13:24:25;29.20;85.40
29363;DHT22;16349;53.672;10.014;2023-06-22T13:26:52;29.80;85.00
29363;DHT22;16349;53.672;10.014;2023-06-22T13:29:20;30.50;83.40
29363;DHT22;16349;53.672;10.014;2023-06-22T13:31:47;30.90;79.90
29363;DHT22;16349;53.672;10.014;2023-06-22T13:34:14;31.30;77.10
29363;DHT22;16349;53.672;10.014;2023-06-22T13:36:40;31.30;78.30
29363;DHT22;16349;53.672;10.014;2023-06-22T13:39:07;31.70;78.50
29363;DHT22;16349;53.672;10.014;2023-06-22T13:41:34;31.80;76.10
29363;DHT22;16349;53.672;10.014;2023-06-22T13:44:01;31.50;76.70
29363;DHT22;16349;53.672;10.014;2023-06-22T13:46:29;30.90;77.20
29363;DHT22;16349;53.672;10.014;2023-06-22T13:48:56;30.60;79.50
29363;DHT22;16349;53.672;10.014;2023-06-22T13:51:23;30.30;78.60
29363;DHT22;16349;53.672;10.014;2023-06-22T13:53:49;30.00;78.90
29363;DHT22;16349;53.672;10.014;2023-06-22T13:56:16;29.80;79.20
29363;DHT22;16349;53.672;10.014;2023-06-22T13:58:43;29.60;79.20
29363;DHT22;16349;53.672;10.014;2023-06-22T14:01:10;29.30;79.30
29363;DHT22;16349;53.672;10.014;2023-06-22T14:03:39;29.10;80.20
29363;DHT22;16349;53.672;10.014;2023-06-22T14:06:05;29.20;81.20
29363;DHT22;16349;53.672;10.014;2023-06-22T14:08:36;29.20;80.80
29363;DHT22;16349;53.672;10.014;2023-06-22T14:11:03;29.20;80.60
29363;DHT22;16349;53.672;10.014;2023-06-22T14:13:30;29.10;80.60
29363;DHT22;16349;53.672;10.014;2023-06-22T14:15:57;29.10;81.40
29363;DHT22;16349;53.672;10.014;2023-06-22T14:18:24;29.10;81.10
29363;DHT22;16349;53.672;10.014;2023-06-22T14:20:52;29.10;82.10
29363;DHT22;16349;53.672;10.014;2023-06-22T14:23:19;29.10;81.80
29363;DHT22;16349;53.672;10.014;2023-06-22T14:25:46;29.20;81.50
29363;DHT22;16349;53.672;10.014;2023-06-22T14:28:13;29.20;82.30
29363;DHT22;16349;53.672;10.014;2023-06-22T14:30:42;29.30;81.80
29363;DHT22;16349;53.672;10.014;2023-06-22T14:33:08;29.40;81.30
29363;DHT22;16349;53.672;10.014;2023-06-22T14:35:35;29.30;81.80
29363;DHT22;16349;53.672;10.014;2023-06-22T14:38:03;29.40;81.30
29363;DHT22;16349;53.672;10.014;2023-06-22T14:40:30;29.50;82.00
29363;DHT22;16349;53.672;10.014;2023-06-22T14:42:57;29.20;81.50
29363;DHT22;16349;53.672;10.014;2023-06-22T14:45:24;29.00;80.90
29363;DHT22;16349;53.672;10.014;2023-06-22T14:47:52;28.90;81.00
29363;DHT22;16349;53.672;10.014;2023-06-22T14:50:19;28.60;81.20
29363;DHT22;16349;53.672;10.014;2023-06-22T14:52:46;28.40;81.80
29363;DHT22;16349;53.672;10.014;2023-06-22T14:55:14;28.30;82.80
29363;DHT22;16349;53.672;10.014;2023-06-22T14:57:41;28.20;83.30
29363;DHT22;16349;53.672;10.014;2023-06-22T15:00:08;28.10;83.00
29363;DHT22;16349;53.672;10.014;2023-06-22T15:02:35;28.00;83.90
29363;DHT22;16349;53.672;10.014;2023-06-22T15:05:03;27.90;84.30
29363;DHT22;16349;53.672;10.014;2023-06-22T15:07:29;27.80;84.60
29363;DHT22;16349;53.672;10.014;2023-06-22T15:09:56;27.70;84.90
29363;DHT22;16349;53.672;10.014;2023-06-22T15:12:24;27.60;85.10
29363;DHT22;16349;53.672;10.014;2023-06-22T15:14:51;27.60;85.80
29363;DHT22;16349;53.672;10.014;2023-06-22T15:17:18;27.50;85.70